createdAt,value
2022-09-03T00:00:56.551Z,11.82
2022-09-03T00:03:32.327Z,11.72
2022-09-03T00:06:12.289Z,11.74
2022-09-03T00:08:46.975Z,11.70
2022-09-03T00:11:25.028Z,11.62
2022-09-03T00:14:03.244Z,11.60
2022-09-03T00:16:54.372Z,11.56
2022-09-03T00:19:30.288Z,11.59
2022-09-03T00:22:02.990Z,11.53
2022-09-03T00:24:34.095Z,11.52
2022-09-03T00:27:03.484Z,11.50
2022-09-03T00:29:35.367Z,11.48
2022-09-03T00:32:14.165Z,11.52
2022-09-03T00:34:47.263Z,11.49
2022-09-03T00:37:19.044Z,11.49
2022-09-03T00:39:45.940Z,11.51
2022-09-03T00:42:31.550Z,11.50
2022-09-03T00:45:17.229Z,11.50
2022-09-03T00:48:00.282Z,11.49
2022-09-03T00:50:45.620Z,11.55
2022-09-03T00:53:18.743Z,11.64
2022-09-03T00:55:48.640Z,11.58
2022-09-03T00:58:34.268Z,11.56
2022-09-03T01:01:09.976Z,11.58
2022-09-03T01:03:58.834Z,11.61
2022-09-03T01:06:39.610Z,11.64
2022-09-03T01:09:22.525Z,11.62
2022-09-03T01:12:01.611Z,11.61
2022-09-03T01:14:33.388Z,11.67
2022-09-03T01:17:09.480Z,11.72
2022-09-03T01:19:48.091Z,11.70
2022-09-03T01:22:41.507Z,11.62
2022-09-03T01:25:17.984Z,11.67
2022-09-03T01:27:53.016Z,11.66
2022-09-03T01:30:30.283Z,11.60
2022-09-03T01:33:15.146Z,11.64
2022-09-03T01:35:50.059Z,11.65
2022-09-03T01:38:22.855Z,11.61
2022-09-03T01:40:52.511Z,11.65
2022-09-03T01:43:32.690Z,11.61
2022-09-03T01:46:14.121Z,11.64
2022-09-03T01:48:46.660Z,11.57
2022-09-03T01:51:23.850Z,11.51
2022-09-03T01:54:21.001Z,11.46
2022-09-03T01:57:19.138Z,11.43
2022-09-03T02:00:17.170Z,11.50
2022-09-03T02:02:48.224Z,11.51
2022-09-03T02:05:18.519Z,11.49
2022-09-03T02:07:47.414Z,11.46
2022-09-03T02:10:32.188Z,11.38
2022-09-03T02:13:12.692Z,11.43
2022-09-03T02:15:48.351Z,11.52
2022-09-03T02:18:24.444Z,11.51
2022-09-03T02:20:54.972Z,11.52
2022-09-03T02:23:28.589Z,11.53
2022-09-03T02:25:57.201Z,11.46
2022-09-03T02:28:31.158Z,11.45
2022-09-03T02:33:46.400Z,11.49
2022-09-03T02:36:21.279Z,11.51
2022-09-03T02:38:48.129Z,11.52
2022-09-03T02:41:19.947Z,11.50
2022-09-03T02:44:00.433Z,11.47
2022-09-03T02:46:39.077Z,11.47
2022-09-03T02:49:14.932Z,11.47
2022-09-03T02:51:46.071Z,11.44
2022-09-03T02:54:18.925Z,11.40
2022-09-03T02:57:02.033Z,11.39
2022-09-03T02:59:28.916Z,11.36
2022-09-03T03:02:01.266Z,11.34
2022-09-03T03:04:43.474Z,11.29
2022-09-03T03:07:16.418Z,11.25
2022-09-03T03:09:43.291Z,11.20
2022-09-03T03:12:13.505Z,11.17
2022-09-03T03:14:40.369Z,11.15
2022-09-03T03:17:18.273Z,11.11
2022-09-03T03:19:45.207Z,11.08
2022-09-03T03:22:12.071Z,11.05
2022-09-03T03:24:45.706Z,11.02
2022-09-03T03:27:17.372Z,11.00
2022-09-03T03:29:53.131Z,10.99
2022-09-03T03:32:20.766Z,10.88
2022-09-03T03:35:01.148Z,10.85
2022-09-03T03:37:33.811Z,10.78
2022-09-03T03:40:03.132Z,10.79
2022-09-03T03:42:36.399Z,10.75
2022-09-03T03:45:15.069Z,10.76
2022-09-03T03:47:45.112Z,10.70
2022-09-03T03:50:14.856Z,10.65
2022-09-03T03:52:49.497Z,10.62
2022-09-03T03:55:19.968Z,10.60
2022-09-03T03:57:54.456Z,10.54
2022-09-03T04:03:26.762Z,10.52
2022-09-03T04:05:59.932Z,10.60
2022-09-03T04:08:38.617Z,10.50
2022-09-03T04:11:10.119Z,10.43
2022-09-03T04:13:38.642Z,10.36
2022-09-03T04:16:16.645Z,10.39
2022-09-03T04:18:43.542Z,10.41
2022-09-03T04:21:20.295Z,10.40
2022-09-03T04:23:50.874Z,10.41
2022-09-03T04:26:27.020Z,10.47
2022-09-03T04:28:56.990Z,10.54
2022-09-03T04:31:28.078Z,10.49
2022-09-03T04:33:55.115Z,10.47
2022-09-03T04:36:23.188Z,10.53
2022-09-03T04:38:59.343Z,10.51
2022-09-03T04:41:30.032Z,10.58
2022-09-03T04:43:58.471Z,10.54
2022-09-03T04:46:34.582Z,10.55
2022-09-03T04:49:18.064Z,10.65
2022-09-03T04:51:45.082Z,10.71
2022-09-03T04:54:29.233Z,10.72
2022-09-03T04:57:02.384Z,10.73
2022-09-03T04:59:29.277Z,10.81
2022-09-03T05:02:09.542Z,10.88
2022-09-03T05:04:39.274Z,10.98
2022-09-03T05:07:08.288Z,11.06
2022-09-03T05:09:38.289Z,11.17
2022-09-03T05:12:12.434Z,11.28
2022-09-03T05:14:48.060Z,11.42
2022-09-03T05:17:18.031Z,11.58
2022-09-03T05:19:53.655Z,11.73
2022-09-03T05:22:23.399Z,11.93
2022-09-03T05:24:50.481Z,12.10
2022-09-03T05:27:35.135Z,12.30
2022-09-03T05:30:02.065Z,12.60
2022-09-03T05:32:31.138Z,12.88
2022-09-03T05:35:00.968Z,13.12
2022-09-03T05:37:37.046Z,13.37
2022-09-03T05:40:06.518Z,13.61
2022-09-03T05:42:41.042Z,13.89
2022-09-03T05:45:11.191Z,14.16
2022-09-03T05:47:41.091Z,14.47
2022-09-03T05:50:15.190Z,14.83
2022-09-03T05:52:47.416Z,15.24
2022-09-03T05:55:14.372Z,15.57
2022-09-03T05:57:46.269Z,15.81
2022-09-03T06:00:16.480Z,15.95
2022-09-03T06:02:52.930Z,16.17
2022-09-03T06:05:22.989Z,16.35
2022-09-03T06:07:52.839Z,16.75
2022-09-03T06:10:26.006Z,16.79
2022-09-03T06:12:55.388Z,17.19
2022-09-03T06:15:24.988Z,17.47
2022-09-03T06:17:54.574Z,17.73
2022-09-03T06:20:21.529Z,17.87
2022-09-03T06:22:49.113Z,18.19
2022-09-03T06:25:19.429Z,18.39
2022-09-03T06:27:47.584Z,18.70
2022-09-03T06:30:20.391Z,18.80
2022-09-03T06:32:47.858Z,18.93
2022-09-03T06:35:20.829Z,19.00
2022-09-03T06:37:47.889Z,19.07
2022-09-03T06:40:22.744Z,19.08
2022-09-03T06:43:02.127Z,19.13
2022-09-03T06:45:31.743Z,19.15
2022-09-03T06:48:04.009Z,19.28
2022-09-03T06:50:34.522Z,19.50
2022-09-03T06:53:01.866Z,19.55
2022-09-03T06:55:35.567Z,19.82
2022-09-03T06:58:11.404Z,19.62
2022-09-03T07:00:39.641Z,19.72
2022-09-03T07:03:12.151Z,20.05
2022-09-03T07:05:45.882Z,20.20
2022-09-03T07:08:15.624Z,20.32
2022-09-03T07:10:46.622Z,20.21
2022-09-03T07:13:14.438Z,20.46
2022-09-03T07:15:41.486Z,20.57
2022-09-03T07:18:08.433Z,20.66
2022-09-03T07:20:38.327Z,20.76
2022-09-03T07:23:08.301Z,20.89
2022-09-03T07:25:41.591Z,21.15
2022-09-03T07:28:08.439Z,21.20
2022-09-03T07:30:35.307Z,21.43
2022-09-03T07:33:07.436Z,21.38
2022-09-03T07:35:36.595Z,21.45
2022-09-03T07:38:04.022Z,21.51
2022-09-03T07:40:36.694Z,21.36
2022-09-03T07:43:09.506Z,21.58
2022-09-03T07:45:37.653Z,21.61
2022-09-03T07:48:09.798Z,21.71
2022-09-03T07:50:51.730Z,21.60
2022-09-03T07:53:27.421Z,21.53
2022-09-03T07:55:54.963Z,21.57
2022-09-03T07:58:34.524Z,21.86
2022-09-03T08:01:19.159Z,21.84
2022-09-03T08:03:48.987Z,21.92
2022-09-03T08:06:28.175Z,21.80
2022-09-03T08:09:05.407Z,22.02
2022-09-03T08:11:45.755Z,21.96
2022-09-03T08:14:16.146Z,21.89
2022-09-03T08:16:51.511Z,22.17
2022-09-03T08:19:21.187Z,22.21
2022-09-03T08:21:56.257Z,21.80
2022-09-03T08:24:24.892Z,22.17
2022-09-03T08:26:54.839Z,22.20
2022-09-03T08:29:23.790Z,22.12
2022-09-03T08:31:59.525Z,22.23
2022-09-03T08:34:26.711Z,22.19
2022-09-03T08:36:54.627Z,22.48
2022-09-03T08:39:27.399Z,22.79
2022-09-03T08:42:05.081Z,23.11
2022-09-03T08:44:45.870Z,23.04
2022-09-03T08:47:31.514Z,22.79
2022-09-03T08:50:10.399Z,22.57
2022-09-03T08:52:59.643Z,22.61
2022-09-03T08:55:38.097Z,22.20
2022-09-03T08:58:07.375Z,22.34
2022-09-03T09:01:02.145Z,22.66
2022-09-03T09:03:35.570Z,22.81
2022-09-03T09:06:05.222Z,22.78
2022-09-03T09:08:53.894Z,22.78
2022-09-03T09:11:33.790Z,22.59
2022-09-03T09:14:12.169Z,22.59
2022-09-03T09:16:45.200Z,22.48
2022-09-03T09:19:27.286Z,22.61
2022-09-03T09:22:04.489Z,23.09
2022-09-03T09:24:42.393Z,23.38
2022-09-03T09:27:16.078Z,23.53
2022-09-03T09:29:55.973Z,23.46
2022-09-03T09:32:25.305Z,23.54
2022-09-03T09:34:53.325Z,23.74
2022-09-03T09:37:20.680Z,23.83
2022-09-03T09:39:58.073Z,23.95
2022-09-03T09:42:25.096Z,23.83
2022-09-03T09:44:58.242Z,23.73
2022-09-03T09:47:44.709Z,23.85
2022-09-03T09:50:25.130Z,23.92
2022-09-03T09:53:14.455Z,24.17
2022-09-03T09:55:51.660Z,24.23
2022-09-03T09:58:26.694Z,24.11
2022-09-03T10:01:16.461Z,24.33
2022-09-03T10:04:00.637Z,24.20
2022-09-03T10:06:51.389Z,24.22
2022-09-03T10:09:19.740Z,24.16
2022-09-03T10:11:51.015Z,24.43
2022-09-03T10:14:35.462Z,24.61
2022-09-03T10:17:12.637Z,24.71
2022-09-03T10:20:27.461Z,24.96
2022-09-03T10:23:02.421Z,25.11
2022-09-03T10:25:36.004Z,24.91
2022-09-03T10:28:03.261Z,24.84
2022-09-03T10:30:42.456Z,24.72
2022-09-03T10:33:24.552Z,24.79
2022-09-03T10:36:06.735Z,24.84
2022-09-03T10:38:45.361Z,25.11
2022-09-03T10:41:33.199Z,25.48
2022-09-03T10:44:23.240Z,25.61
2022-09-03T10:46:59.054Z,25.71
2022-09-03T10:49:44.635Z,25.62
2022-09-03T10:52:33.226Z,25.94
2022-09-03T10:55:07.395Z,25.47
2022-09-03T10:57:37.851Z,25.55
2022-09-03T11:03:07.611Z,25.74
2022-09-03T11:05:45.677Z,25.56
2022-09-03T11:08:25.317Z,25.67
2022-09-03T11:11:05.803Z,25.60
2022-09-03T11:13:48.051Z,25.66
2022-09-03T11:16:18.438Z,25.84
2022-09-03T11:19:04.585Z,26.16
2022-09-03T11:21:33.067Z,26.36
2022-09-03T11:24:23.324Z,26.63
2022-09-03T11:27:19.287Z,26.72
2022-09-03T11:29:51.826Z,26.65
2022-09-03T11:32:26.566Z,26.83
2022-09-03T11:34:59.624Z,25.85
2022-09-03T11:37:35.027Z,26.09
2022-09-03T11:40:19.008Z,26.04
2022-09-03T11:42:50.434Z,26.09
2022-09-03T11:45:35.147Z,26.17
2022-09-03T11:48:32.019Z,26.66
2022-09-03T11:51:02.599Z,26.55
2022-09-03T11:53:41.641Z,26.70
2022-09-03T11:56:20.347Z,26.69
2022-09-03T11:59:01.776Z,26.84
2022-09-03T12:01:31.993Z,26.80
2022-09-03T12:04:05.718Z,26.90
2022-09-03T12:06:37.755Z,27.13
2022-09-03T12:09:23.104Z,26.97
2022-09-03T12:12:13.542Z,26.94
2022-09-03T12:15:01.683Z,27.16
2022-09-03T12:17:37.476Z,27.27
2022-09-03T12:20:12.829Z,27.02
2022-09-03T12:22:48.189Z,25.88
2022-09-03T12:25:23.208Z,25.50
2022-09-03T12:27:55.787Z,25.46
2022-09-03T12:30:23.659Z,25.16
2022-09-03T12:33:06.682Z,24.66
2022-09-03T12:38:54.706Z,25.93
2022-09-03T12:41:40.207Z,25.87
2022-09-03T12:44:07.244Z,26.15
2022-09-03T12:46:34.691Z,26.54
2022-09-03T12:52:15.202Z,27.06
2022-09-03T12:54:57.005Z,26.47
2022-09-03T12:57:30.112Z,25.86
2022-09-03T13:00:06.659Z,25.81
2022-09-03T13:02:46.596Z,25.62
2022-09-03T13:05:21.310Z,25.30
2022-09-03T13:11:00.412Z,24.83
2022-09-03T13:13:39.987Z,24.71
2022-09-03T13:16:20.270Z,24.64
2022-09-03T13:22:15.349Z,24.79
2022-09-03T13:25:00.936Z,24.46
2022-09-03T13:27:35.906Z,24.22
2022-09-03T13:30:25.444Z,24.33
2022-09-03T13:33:10.431Z,24.38
2022-09-03T13:35:57.559Z,24.36
2022-09-03T13:38:42.741Z,24.39
2022-09-03T13:41:51.546Z,24.35
2022-09-03T13:44:28.670Z,24.41
2022-09-03T13:47:05.844Z,24.36
2022-09-03T13:49:57.972Z,24.28
2022-09-03T13:52:45.429Z,24.41
2022-09-03T13:55:45.605Z,24.32
2022-09-03T13:58:32.711Z,24.13
2022-09-03T14:01:05.079Z,24.32
2022-09-03T14:03:53.681Z,24.57
2022-09-03T14:06:30.393Z,24.67
2022-09-03T14:09:21.928Z,24.65
2022-09-03T14:12:07.405Z,24.73
2022-09-03T14:14:47.506Z,25.01
2022-09-03T14:17:38.426Z,25.32
2022-09-03T14:20:14.573Z,25.49
2022-09-03T14:23:04.538Z,25.85
2022-09-03T14:25:47.480Z,26.39
2022-09-03T14:28:31.731Z,26.00
2022-09-03T14:31:29.037Z,25.58
2022-09-03T14:34:31.205Z,25.02
2022-09-03T14:37:33.509Z,24.99
2022-09-03T14:40:15.131Z,25.17
2022-09-03T14:42:51.937Z,25.71
2022-09-03T14:45:50.945Z,26.29
2022-09-03T14:48:26.754Z,26.48
2022-09-03T14:51:06.743Z,26.65
2022-09-03T14:53:54.165Z,26.96
2022-09-03T14:56:26.951Z,27.01
2022-09-03T14:59:08.136Z,27.19
2022-09-03T15:01:39.199Z,27.51
2022-09-03T15:04:15.688Z,27.56
2022-09-03T15:06:52.079Z,27.46
2022-09-03T15:09:28.154Z,27.22
2022-09-03T15:12:06.372Z,27.19
2022-09-03T15:14:42.148Z,27.05
2022-09-03T15:17:28.847Z,27.08
2022-09-03T15:20:15.133Z,27.21
2022-09-03T15:22:49.342Z,27.29
2022-09-03T15:25:37.564Z,27.42
2022-09-03T15:28:09.260Z,27.52
2022-09-03T15:30:53.419Z,27.80
2022-09-03T15:33:28.969Z,28.08
2022-09-03T15:36:03.106Z,28.11
2022-09-03T15:38:52.286Z,28.20
2022-09-03T15:41:30.029Z,28.68
2022-09-03T15:44:16.930Z,29.12
2022-09-03T15:46:49.375Z,29.75
2022-09-03T15:49:40.247Z,30.25
2022-09-03T15:52:07.171Z,30.36
2022-09-03T15:54:54.888Z,30.85
2022-09-03T15:57:39.367Z,31.48
2022-09-03T16:00:31.031Z,31.89
2022-09-03T16:03:24.273Z,32.04
2022-09-03T16:05:59.808Z,32.77
2022-09-03T16:08:45.288Z,33.47
2022-09-03T16:11:27.584Z,33.61
2022-09-03T16:14:07.545Z,33.07
2022-09-03T16:16:51.565Z,33.50
2022-09-03T16:19:21.240Z,33.28
2022-09-03T16:22:01.859Z,33.63
2022-09-03T16:24:40.774Z,33.86
2022-09-03T16:27:11.161Z,33.63
2022-09-03T16:30:01.418Z,33.75
2022-09-03T16:32:49.840Z,33.43
2022-09-03T16:35:45.301Z,32.61
2022-09-03T16:38:18.960Z,30.77
2022-09-03T16:41:09.085Z,29.31
2022-09-03T16:43:45.258Z,28.06
2022-09-03T16:46:34.331Z,26.96
2022-09-03T16:49:07.931Z,26.17
2022-09-03T16:51:48.284Z,25.66
2022-09-03T16:54:51.842Z,24.89
2022-09-03T16:57:27.687Z,24.25
2022-09-03T17:00:05.884Z,23.80
2022-09-03T17:02:55.129Z,23.33
2022-09-03T17:05:26.532Z,23.03
2022-09-03T17:08:14.136Z,22.73
2022-09-03T17:11:11.754Z,22.47
2022-09-03T17:14:01.178Z,22.10
2022-09-03T17:16:37.648Z,21.78
2022-09-03T17:19:13.239Z,21.42
2022-09-03T17:21:52.938Z,21.13
2022-09-03T17:24:38.076Z,20.91
2022-09-03T17:27:32.596Z,20.70
2022-09-03T17:30:13.799Z,20.43
2022-09-03T17:32:46.364Z,20.25
2022-09-03T17:35:27.559Z,20.04
2022-09-03T17:38:10.065Z,19.90
2022-09-03T17:40:39.625Z,19.76
2022-09-03T17:43:34.814Z,19.65
2022-09-03T17:46:20.305Z,19.46
2022-09-03T17:49:01.970Z,19.23
2022-09-03T17:51:48.639Z,19.06
2022-09-03T17:54:29.486Z,18.93
2022-09-03T17:57:02.972Z,18.80
2022-09-03T17:59:59.444Z,18.63
2022-09-03T18:02:46.758Z,18.51
2022-09-03T18:05:32.349Z,18.28
2022-09-03T18:08:17.681Z,18.19
2022-09-03T18:11:07.291Z,18.11
2022-09-03T18:13:55.371Z,17.97
2022-09-03T18:16:26.969Z,17.85
2022-09-03T18:19:22.343Z,17.77
2022-09-03T18:22:09.260Z,17.56
2022-09-03T18:25:01.932Z,17.52
2022-09-03T18:27:55.259Z,17.45
2022-09-03T18:30:47.258Z,17.33
2022-09-03T18:33:39.627Z,17.27
2022-09-03T18:36:28.270Z,17.24
2022-09-03T18:39:17.187Z,17.21
2022-09-03T18:42:03.846Z,17.17
2022-09-03T18:45:11.919Z,17.11
2022-09-03T18:48:22.964Z,17.14
2022-09-03T18:51:21.788Z,17.02
2022-09-03T18:54:11.394Z,16.91
2022-09-03T18:57:06.434Z,16.80
2022-09-03T19:00:11.107Z,16.69
2022-09-03T19:03:06.986Z,16.65
2022-09-03T19:05:58.525Z,16.57
2022-09-03T19:09:05.482Z,16.52
2022-09-03T19:11:55.791Z,16.56
2022-09-03T19:14:53.608Z,16.52
2022-09-03T19:17:48.130Z,16.50
2022-09-03T19:20:46.081Z,16.46
2022-09-03T19:23:31.671Z,16.39
2022-09-03T19:26:28.316Z,16.24
2022-09-03T19:29:23.412Z,16.19
2022-09-03T19:32:28.394Z,16.14
2022-09-03T19:35:35.681Z,16.06
2022-09-03T19:38:33.596Z,15.99
2022-09-03T19:41:31.472Z,15.90
2022-09-03T19:44:38.175Z,15.96
2022-09-03T19:47:41.189Z,15.78
2022-09-03T19:50:43.955Z,15.77
2022-09-03T19:53:40.394Z,15.75
2022-09-03T19:56:46.512Z,15.56
2022-09-03T19:59:38.948Z,15.54
2022-09-03T20:02:28.026Z,15.53
2022-09-03T20:05:21.947Z,15.44
2022-09-03T20:08:10.189Z,15.33
2022-09-03T20:10:56.334Z,15.34
2022-09-03T20:13:26.296Z,15.25
2022-09-03T20:16:02.761Z,15.29
2022-09-03T20:18:50.308Z,15.22
2022-09-03T20:22:04.892Z,15.13
2022-09-03T20:24:58.172Z,15.12
2022-09-03T20:27:30.983Z,14.98
2022-09-03T20:30:12.469Z,14.87
2022-09-03T20:32:53.364Z,14.77
2022-09-03T20:35:47.500Z,14.79
2022-09-03T20:41:33.292Z,14.78
2022-09-03T20:44:05.900Z,14.73
2022-09-03T20:46:54.980Z,14.73
2022-09-03T20:49:52.280Z,14.79
2022-09-03T20:52:31.387Z,14.71
2022-09-03T20:55:16.632Z,14.67
2022-09-03T20:57:52.182Z,14.62
2022-09-03T21:00:23.392Z,14.57
2022-09-03T21:03:10.892Z,14.58
2022-09-03T21:05:59.266Z,14.56
2022-09-03T21:08:41.493Z,14.58
2022-09-03T21:11:14.702Z,14.61
2022-09-03T21:13:57.261Z,14.64
2022-09-03T21:16:48.769Z,14.64
2022-09-03T21:19:36.914Z,14.61
2022-09-03T21:22:12.308Z,14.60
2022-09-03T21:25:00.830Z,14.63
2022-09-03T21:27:32.741Z,14.64
2022-09-03T21:30:09.702Z,14.65
2022-09-03T21:32:44.193Z,14.71
2022-09-03T21:35:29.855Z,14.73
2022-09-03T21:38:05.409Z,14.76
2022-09-03T21:40:35.775Z,14.79
2022-09-03T21:43:17.493Z,14.79
2022-09-03T21:45:58.051Z,14.81
2022-09-03T21:48:35.784Z,14.84
2022-09-03T21:51:11.315Z,14.80
2022-09-03T21:53:59.230Z,14.82
2022-09-03T21:56:35.120Z,14.81
2022-09-03T21:59:09.340Z,14.75
2022-09-03T22:01:39.448Z,14.76
2022-09-03T22:04:18.045Z,14.76
2022-09-03T22:07:10.374Z,14.71
2022-09-03T22:09:53.439Z,14.69
2022-09-03T22:12:23.482Z,14.59
2022-09-03T22:14:52.025Z,14.67
2022-09-03T22:17:47.197Z,14.54
2022-09-03T22:20:15.646Z,14.44
2022-09-03T22:22:50.496Z,14.40
2022-09-03T22:25:25.114Z,14.31
2022-09-03T22:28:12.115Z,14.23
2022-09-03T22:30:44.728Z,14.20
2022-09-03T22:33:33.696Z,14.09
2022-09-03T22:36:03.939Z,14.12
2022-09-03T22:38:53.141Z,14.15
2022-09-03T22:41:34.759Z,13.98
2022-09-03T22:44:27.549Z,13.93
2022-09-03T22:47:00.134Z,13.93
2022-09-03T22:49:46.377Z,13.87
2022-09-03T22:52:31.337Z,13.92
2022-09-03T22:55:15.817Z,13.86
2022-09-03T22:58:03.007Z,13.83
2022-09-03T23:00:34.013Z,13.79
2022-09-03T23:03:08.042Z,13.74
2022-09-03T23:05:35.207Z,13.69
2022-09-03T23:08:10.419Z,13.66
2022-09-03T23:10:56.618Z,13.58
2022-09-03T23:14:05.024Z,13.61
2022-09-03T23:16:47.181Z,13.75
2022-09-03T23:19:35.920Z,14.07
2022-09-03T23:22:09.616Z,14.36
2022-09-03T23:24:43.704Z,14.44
2022-09-03T23:27:16.778Z,14.46
2022-09-03T23:29:43.707Z,14.48
2022-09-03T23:32:16.350Z,14.43
2022-09-03T23:34:43.198Z,14.43
2022-09-03T23:40:18.258Z,14.37
2022-09-03T23:43:00.012Z,14.28
2022-09-03T23:45:29.609Z,14.32
2022-09-03T23:48:08.470Z,14.33
2022-09-03T23:50:36.268Z,14.41
2022-09-03T23:53:10.137Z,14.40
2022-09-03T23:56:11.542Z,14.43
2022-09-03T23:58:55.422Z,14.56
